createdAt,value
2023-03-26T00:01:16.517Z,99833.38
2023-03-26T00:03:47.333Z,99823.91
2023-03-26T00:06:16.085Z,99823.78
2023-03-26T00:08:45.217Z,99819.38
2023-03-26T00:11:14.511Z,99809.72
2023-03-26T00:13:43.816Z,99785.81
2023-03-26T00:16:13.839Z,99795.97
2023-03-26T00:18:42.671Z,99786.22
2023-03-26T00:21:13.614Z,99750.13
2023-03-26T00:23:40.386Z,99769.00
2023-03-26T00:26:10.635Z,99752.81
2023-03-26T00:28:41.661Z,99758.66
2023-03-26T00:31:13.675Z,99751.50
2023-03-26T00:33:41.481Z,99759.44
2023-03-26T00:36:12.056Z,99736.91
2023-03-26T00:38:39.448Z,99751.44
2023-03-26T00:41:08.361Z,99744.63
2023-03-26T00:43:36.207Z,99755.50
2023-03-26T00:46:03.254Z,99745.22
2023-03-26T00:48:43.952Z,99730.59
2023-03-26T00:51:12.151Z,99754.09
2023-03-26T00:53:39.096Z,99744.97
2023-03-26T00:56:08.082Z,99745.25
2023-03-26T00:58:35.069Z,99747.00
2023-03-26T01:01:05.829Z,99731.41
2023-03-26T01:03:35.090Z,99728.72
2023-03-26T01:06:08.290Z,99719.88
2023-03-26T01:08:46.731Z,99703.47
2023-03-26T01:11:28.215Z,99696.44
2023-03-26T01:13:57.709Z,99668.22
2023-03-26T01:16:31.928Z,99667.31
2023-03-26T01:18:59.026Z,99643.22
2023-03-26T01:21:30.450Z,99653.50
2023-03-26T01:24:05.261Z,99655.19
2023-03-26T01:26:50.041Z,99659.78
2023-03-26T01:29:39.557Z,99653.13
2023-03-26T01:32:17.715Z,99665.50
2023-03-26T01:35:06.467Z,99674.16
2023-03-26T01:37:52.681Z,99704.47
2023-03-26T01:40:26.821Z,99697.75
2023-03-26T01:43:21.034Z,99714.31
2023-03-26T01:45:49.430Z,99722.56
2023-03-26T01:48:16.363Z,99729.84
2023-03-26T01:50:43.029Z,99738.94
2023-03-26T01:53:11.806Z,99770.38
2023-03-26T01:55:54.015Z,99809.91
2023-03-26T01:58:36.394Z,99842.34
2023-03-26T02:01:36.804Z,99837.00
2023-03-26T02:04:08.239Z,99871.72
2023-03-26T02:07:02.167Z,99887.66
2023-03-26T02:09:32.201Z,99872.38
2023-03-26T02:12:00.242Z,99908.59
2023-03-26T02:14:29.728Z,99898.84
2023-03-26T02:16:57.301Z,99894.25
2023-03-26T02:19:24.714Z,99925.53
2023-03-26T02:21:51.628Z,99937.72
2023-03-26T02:24:21.412Z,99921.06
2023-03-26T02:26:48.072Z,99957.34
2023-03-26T02:29:20.568Z,99969.69
2023-03-26T02:31:51.256Z,99977.00
2023-03-26T02:34:17.980Z,99967.09
2023-03-26T02:36:44.720Z,99987.84
2023-03-26T02:39:12.139Z,99994.81
2023-03-26T02:41:39.329Z,100007.06
2023-03-26T02:44:06.373Z,100016.75
2023-03-26T02:46:33.803Z,99973.53
2023-03-26T02:49:00.717Z,99959.50
2023-03-26T02:51:27.492Z,99929.75
2023-03-26T02:53:54.980Z,99902.88
2023-03-26T02:56:21.970Z,99866.25
2023-03-26T02:58:48.662Z,99863.69
2023-03-26T03:01:18.471Z,99864.53
2023-03-26T03:03:47.462Z,99821.41
2023-03-26T03:06:17.241Z,99828.00
2023-03-26T03:08:46.118Z,99826.25
2023-03-26T03:11:18.090Z,99802.84
2023-03-26T03:13:45.816Z,99801.13
2023-03-26T03:16:12.517Z,99778.47
2023-03-26T03:18:39.228Z,99755.34
2023-03-26T03:21:06.346Z,99768.31
2023-03-26T03:23:32.988Z,99743.47
2023-03-26T03:25:59.707Z,99746.81
2023-03-26T03:28:26.905Z,99712.00
2023-03-26T03:30:53.718Z,99694.16
2023-03-26T03:33:20.962Z,99664.81
2023-03-26T03:35:49.596Z,99666.13
2023-03-26T03:38:19.678Z,99637.69
2023-03-26T03:40:46.441Z,99624.06
2023-03-26T03:43:13.128Z,99602.41
2023-03-26T03:45:39.983Z,99580.00
2023-03-26T03:48:06.684Z,99577.16
2023-03-26T03:50:35.640Z,99550.50
2023-03-26T03:53:03.245Z,99528.13
2023-03-26T03:55:30.124Z,99535.72
2023-03-26T03:57:58.402Z,99521.84
2023-03-26T04:00:25.193Z,99528.50
2023-03-26T04:02:54.494Z,99524.41
2023-03-26T04:05:21.749Z,99511.34
2023-03-26T04:07:48.468Z,99517.19
2023-03-26T04:10:16.147Z,99507.63
2023-03-26T04:12:42.788Z,99505.84
2023-03-26T04:15:09.687Z,99481.03
2023-03-26T04:17:42.980Z,99496.00
2023-03-26T04:20:14.833Z,99484.69
2023-03-26T04:22:45.737Z,99482.56
2023-03-26T04:25:13.260Z,99450.69
2023-03-26T04:27:41.853Z,99451.97
2023-03-26T04:30:12.836Z,99450.03
2023-03-26T04:32:40.536Z,99433.56
2023-03-26T04:35:07.602Z,99420.63
2023-03-26T04:37:39.688Z,99411.56
2023-03-26T04:40:10.320Z,99406.16
2023-03-26T04:42:41.854Z,99380.28
2023-03-26T04:45:10.949Z,99346.13
2023-03-26T04:47:39.644Z,99357.69
2023-03-26T04:50:08.216Z,99339.72
2023-03-26T04:52:35.177Z,99304.00
2023-03-26T04:55:01.989Z,99298.22
2023-03-26T04:57:50.839Z,99260.63
2023-03-26T05:00:19.690Z,99243.28
2023-03-26T05:02:50.175Z,99216.16
2023-03-26T05:05:17.811Z,99212.06
2023-03-26T05:07:44.489Z,99207.19
2023-03-26T05:10:15.348Z,99220.81
2023-03-26T05:12:42.199Z,99230.81
2023-03-26T05:15:10.893Z,99266.94
2023-03-26T05:17:41.742Z,99277.56
2023-03-26T05:20:30.282Z,99269.41
2023-03-26T05:22:57.354Z,99281.66
2023-03-26T05:25:24.171Z,99316.41
2023-03-26T05:27:50.979Z,99334.84
2023-03-26T05:30:19.758Z,99336.56
2023-03-26T05:32:49.038Z,99332.06
2023-03-26T05:35:19.484Z,99358.16
2023-03-26T05:37:46.934Z,99379.94
2023-03-26T05:40:17.101Z,99390.69
2023-03-26T05:42:44.509Z,99435.00
2023-03-26T05:45:12.638Z,99412.44
2023-03-26T05:47:39.386Z,99373.88
2023-03-26T05:50:07.633Z,99344.84
2023-03-26T05:52:34.687Z,99367.88
2023-03-26T05:55:01.403Z,99335.03
2023-03-26T05:57:30.599Z,99352.66
2023-03-26T05:59:57.242Z,99320.84
2023-03-26T06:02:24.273Z,99327.31
2023-03-26T06:04:51.129Z,99323.59
2023-03-26T06:07:18.819Z,99342.81
2023-03-26T06:09:45.793Z,99303.13
2023-03-26T06:12:13.808Z,99311.22
2023-03-26T06:14:42.888Z,99320.19
2023-03-26T06:17:10.315Z,99317.91
2023-03-26T06:19:37.120Z,99299.88
2023-03-26T06:22:04.436Z,99312.50
2023-03-26T06:24:31.390Z,99304.00
2023-03-26T06:26:58.063Z,99276.03
2023-03-26T06:29:25.320Z,99291.78
2023-03-26T06:31:51.925Z,99280.03
2023-03-26T06:34:18.672Z,99258.06
2023-03-26T06:36:45.322Z,99258.41
2023-03-26T06:39:11.997Z,99206.22
2023-03-26T06:41:38.665Z,99195.38
2023-03-26T06:44:05.336Z,99199.69
2023-03-26T06:46:32.067Z,99176.44
2023-03-26T06:48:59.681Z,99176.47
2023-03-26T06:51:26.446Z,99150.00
2023-03-26T06:53:53.284Z,99142.19
2023-03-26T06:56:20.009Z,99135.22
2023-03-26T06:58:46.651Z,99119.66
2023-03-26T07:01:13.525Z,99101.50
2023-03-26T07:03:40.278Z,99098.00
2023-03-26T07:06:07.554Z,99057.41
2023-03-26T07:08:34.333Z,99053.47
2023-03-26T07:11:00.975Z,99025.72
2023-03-26T07:13:27.691Z,99014.66
2023-03-26T07:15:55.553Z,99040.84
2023-03-26T07:18:22.374Z,99054.47
2023-03-26T07:20:49.335Z,99010.94
2023-03-26T07:23:20.182Z,98990.78
2023-03-26T07:25:48.405Z,98986.56
2023-03-26T07:28:27.051Z,98992.41
2023-03-26T07:31:11.820Z,99022.22
2023-03-26T07:33:38.504Z,99028.19
2023-03-26T07:36:36.693Z,99053.41
2023-03-26T07:39:28.030Z,99049.75
2023-03-26T07:42:06.053Z,99035.38
2023-03-26T07:44:36.010Z,99044.97
2023-03-26T07:47:11.281Z,99050.19
2023-03-26T07:49:38.388Z,99043.75
2023-03-26T07:52:05.352Z,99017.72
2023-03-26T07:54:32.278Z,99012.56
2023-03-26T07:57:05.625Z,99014.38
2023-03-26T07:59:37.506Z,99016.56
2023-03-26T08:02:22.146Z,99002.94
2023-03-26T08:05:05.318Z,98980.19
2023-03-26T08:07:35.163Z,99015.03
2023-03-26T08:10:20.819Z,98993.56
2023-03-26T08:12:47.477Z,98986.66
2023-03-26T08:15:50.233Z,98975.03
2023-03-26T08:18:28.032Z,98997.78
2023-03-26T08:21:08.147Z,98965.06
2023-03-26T08:23:53.742Z,98972.63
2023-03-26T08:26:32.467Z,98962.97
2023-03-26T08:29:09.856Z,98937.38
2023-03-26T08:31:39.408Z,98942.34
2023-03-26T08:34:06.898Z,98931.63
2023-03-26T08:36:33.752Z,98926.47
2023-03-26T08:39:00.382Z,98918.06
2023-03-26T08:41:45.596Z,98930.63
2023-03-26T08:44:49.681Z,98931.19
2023-03-26T08:47:19.525Z,98938.38
2023-03-26T08:50:21.859Z,98928.94
2023-03-26T08:53:16.123Z,98932.94
2023-03-26T08:55:56.823Z,98947.22
2023-03-26T08:58:23.488Z,98948.69
2023-03-26T09:00:53.594Z,98931.09
2023-03-26T09:03:27.970Z,98937.50
2023-03-26T09:06:29.544Z,98938.06
2023-03-26T09:09:19.083Z,98944.41
2023-03-26T09:12:11.730Z,98957.72
2023-03-26T09:15:16.345Z,98970.84
2023-03-26T09:17:46.181Z,98975.72
2023-03-26T09:20:49.974Z,98978.41
2023-03-26T09:23:40.321Z,98956.75
2023-03-26T09:26:19.107Z,98951.78
2023-03-26T09:29:00.486Z,98945.97
2023-03-26T09:31:39.332Z,98940.03
2023-03-26T09:34:18.238Z,98936.50
2023-03-26T09:37:14.312Z,98940.97
2023-03-26T09:39:49.646Z,98941.22
2023-03-26T09:42:48.572Z,98926.78
2023-03-26T09:45:38.802Z,98929.19
2023-03-26T09:48:47.628Z,98929.75
2023-03-26T09:51:27.732Z,98948.97
2023-03-26T09:54:31.571Z,98960.03
2023-03-26T09:57:17.154Z,98959.66
2023-03-26T10:00:03.584Z,98994.28
2023-03-26T10:03:07.637Z,98965.31
2023-03-26T10:05:58.666Z,98971.03
2023-03-26T10:08:41.568Z,98937.44
2023-03-26T10:11:27.683Z,98933.22
2023-03-26T10:14:23.316Z,98949.38
2023-03-26T10:17:07.054Z,98953.19
2023-03-26T10:20:04.961Z,98957.72
2023-03-26T10:22:36.036Z,98970.72
2023-03-26T10:25:41.062Z,98963.69
2023-03-26T10:28:41.365Z,98953.94
2023-03-26T10:31:23.836Z,98965.13
2023-03-26T10:34:28.611Z,98978.94
2023-03-26T10:37:17.912Z,98990.91
2023-03-26T10:39:59.249Z,99007.84
2023-03-26T10:42:49.734Z,99030.88
2023-03-26T10:45:55.631Z,99010.88
2023-03-26T10:49:01.074Z,99010.88
2023-03-26T10:51:36.450Z,98985.25
2023-03-26T10:54:21.448Z,99008.13
2023-03-26T10:56:50.480Z,98979.72
2023-03-26T10:59:18.279Z,98979.25
2023-03-26T11:02:18.728Z,98976.28
2023-03-26T11:04:54.631Z,98978.75
2023-03-26T11:07:47.127Z,98969.69
2023-03-26T11:10:35.656Z,98962.66
2023-03-26T11:13:13.062Z,98938.69
2023-03-26T11:15:45.238Z,98917.56
2023-03-26T11:18:19.337Z,98930.59
2023-03-26T11:21:19.315Z,98907.09
2023-03-26T11:24:06.376Z,98917.84
2023-03-26T11:26:45.153Z,98898.97
2023-03-26T11:29:31.356Z,98899.91
2023-03-26T11:32:06.502Z,98903.72
2023-03-26T11:35:06.164Z,98906.59
2023-03-26T11:37:35.547Z,98900.53
2023-03-26T11:40:11.578Z,98887.22
2023-03-26T11:42:38.349Z,98898.16
2023-03-26T11:45:07.281Z,98906.16
2023-03-26T11:47:46.090Z,98894.00
2023-03-26T11:50:28.170Z,98900.00
2023-03-26T11:52:59.539Z,98894.84
2023-03-26T11:55:27.686Z,98885.03
2023-03-26T11:57:56.079Z,98873.69
2023-03-26T12:00:27.691Z,98868.63
2023-03-26T12:02:59.285Z,98879.25
2023-03-26T12:05:31.415Z,98849.47
2023-03-26T12:08:18.805Z,98875.47
2023-03-26T12:10:51.650Z,98873.13
2023-03-26T12:13:21.512Z,98881.16
2023-03-26T12:15:48.274Z,98877.97
2023-03-26T12:18:32.245Z,98814.25
2023-03-26T12:21:28.776Z,98891.81
2023-03-26T12:24:29.881Z,98825.06
2023-03-26T12:27:32.676Z,98771.47
2023-03-26T12:30:59.949Z,98893.03
2023-03-26T12:36:57.560Z,98901.63
2023-03-26T12:40:09.079Z,98901.00
2023-03-26T12:44:49.857Z,98757.63
2023-03-26T12:47:26.450Z,98803.13
2023-03-26T12:48:41.242Z,98866.41
2023-03-26T12:51:33.400Z,98885.34
2023-03-26T12:54:24.760Z,98879.31
2023-03-26T12:57:21.892Z,98872.38
2023-03-26T13:00:24.724Z,98879.00
2023-03-26T13:03:03.403Z,98879.44
2023-03-26T13:05:52.569Z,98861.56
2023-03-26T13:08:49.001Z,98898.84
2023-03-26T13:11:45.438Z,98884.78
2023-03-26T13:14:43.499Z,98885.75
2023-03-26T13:17:37.480Z,98881.25
2023-03-26T13:20:46.282Z,98898.41
2023-03-26T13:23:24.158Z,98855.34
2023-03-26T13:26:18.382Z,98889.78
2023-03-26T13:28:47.746Z,98882.28
2023-03-26T13:31:17.230Z,98875.78
2023-03-26T13:34:27.160Z,98879.25
2023-03-26T13:40:58.516Z,98878.06
2023-03-26T13:46:28.496Z,98894.84
2023-03-26T13:46:59.556Z,98864.41
2023-03-26T13:49:50.521Z,98786.91
2023-03-26T13:52:55.695Z,98912.41
2023-03-26T13:55:37.625Z,98826.03
2023-03-26T13:58:38.977Z,98886.28
2023-03-26T14:01:12.700Z,98883.78
2023-03-26T14:04:13.132Z,98889.06
2023-03-26T14:06:42.560Z,98884.72
2023-03-26T14:09:59.140Z,98881.38
2023-03-26T14:12:49.018Z,98887.16
2023-03-26T14:15:37.354Z,98874.69
2023-03-26T14:18:20.107Z,98881.63
2023-03-26T14:20:47.674Z,98877.81
2023-03-26T14:23:28.569Z,98878.88
2023-03-26T14:26:13.820Z,98888.41
2023-03-26T14:28:43.441Z,98863.88
2023-03-26T14:31:23.715Z,98850.84
2023-03-26T14:34:04.895Z,98864.53
2023-03-26T14:36:46.496Z,98883.59
2023-03-26T14:39:29.032Z,98878.53
2023-03-26T14:42:03.110Z,98878.50
2023-03-26T14:44:49.073Z,98889.66
2023-03-26T14:47:20.899Z,98887.50
2023-03-26T14:50:26.693Z,98891.91
2023-03-26T14:53:01.235Z,98882.34
2023-03-26T14:55:50.674Z,98892.28
2023-03-26T14:58:38.822Z,98895.75
2023-03-26T15:01:17.951Z,98892.75
2023-03-26T15:04:20.000Z,98884.97
2023-03-26T15:06:49.332Z,98885.34
2023-03-26T15:09:24.967Z,98880.34
2023-03-26T15:12:17.780Z,98879.06
2023-03-26T15:15:30.478Z,98883.16
2023-03-26T15:18:00.453Z,98886.13
2023-03-26T15:20:33.612Z,98894.09
2023-03-26T15:23:47.357Z,98897.81
2023-03-26T15:26:51.420Z,98904.31
2023-03-26T15:29:21.700Z,98896.97
2023-03-26T15:32:14.094Z,98892.75
2023-03-26T15:34:58.978Z,98897.81
2023-03-26T15:37:31.515Z,98893.72
2023-03-26T15:40:30.271Z,98898.28
2023-03-26T15:43:16.309Z,98899.22
2023-03-26T15:46:22.646Z,98903.59
2023-03-26T15:48:57.887Z,98905.72
2023-03-26T15:51:30.780Z,98896.94
2023-03-26T15:54:02.102Z,98895.59
2023-03-26T15:57:01.471Z,98902.22
2023-03-26T15:59:31.687Z,98910.44
2023-03-26T16:02:30.214Z,98888.59
2023-03-26T16:05:03.341Z,98890.34
2023-03-26T16:07:39.247Z,98903.34
2023-03-26T16:10:28.085Z,98921.69
2023-03-26T16:13:22.470Z,98918.34
2023-03-26T16:15:56.401Z,98927.41
2023-03-26T16:18:32.366Z,98927.91
2023-03-26T16:21:32.788Z,98933.06
2023-03-26T16:24:02.759Z,98935.19
2023-03-26T16:26:44.770Z,98925.56
2023-03-26T16:29:14.653Z,98938.25
2023-03-26T16:32:07.650Z,98924.91
2023-03-26T16:34:42.233Z,98940.44
2023-03-26T16:37:35.712Z,98955.22
2023-03-26T16:40:30.327Z,98957.34
2023-03-26T16:43:32.269Z,98956.81
2023-03-26T16:46:29.960Z,98964.66
2023-03-26T16:49:18.781Z,98967.59
2023-03-26T16:52:21.103Z,98975.38
2023-03-26T16:54:57.406Z,98968.13
2023-03-26T16:57:30.540Z,98975.31
2023-03-26T17:00:13.852Z,98991.63
2023-03-26T17:03:17.924Z,98989.09
2023-03-26T17:05:58.770Z,98985.88
2023-03-26T17:09:18.754Z,98991.94
2023-03-26T17:12:08.139Z,98948.94
2023-03-26T17:14:51.897Z,98990.59
2023-03-26T17:17:27.677Z,98980.13
2023-03-26T17:20:23.651Z,98985.25
2023-03-26T17:23:24.554Z,98989.75
2023-03-26T17:30:07.621Z,98985.47
2023-03-26T17:36:15.087Z,98989.34
2023-03-26T17:38:47.684Z,98995.81
2023-03-26T17:41:35.644Z,98945.31
2023-03-26T17:44:24.492Z,98993.03
2023-03-26T17:54:47.491Z,98900.28
2023-03-26T18:01:03.857Z,99004.72
2023-03-26T18:03:34.680Z,98967.31
2023-03-26T18:06:48.756Z,98915.69
2023-03-26T18:10:05.622Z,98988.41
2023-03-26T18:12:43.357Z,99019.09
2023-03-26T18:15:40.387Z,99019.09
2023-03-26T18:18:20.723Z,99012.31
2023-03-26T18:20:49.285Z,99000.97
2023-03-26T18:23:25.958Z,99004.53
2023-03-26T18:25:59.492Z,99025.00
2023-03-26T18:28:31.493Z,99021.53
2023-03-26T18:31:08.455Z,99027.94
2023-03-26T18:33:49.524Z,99027.88
2023-03-26T18:36:18.735Z,98910.34
2023-03-26T18:38:46.891Z,99019.78
2023-03-26T18:41:30.829Z,99030.22
2023-03-26T18:44:02.746Z,99023.47
2023-03-26T18:46:29.484Z,99039.00
2023-03-26T18:48:57.051Z,99033.59
2023-03-26T18:51:26.145Z,99032.00
2023-03-26T18:53:56.365Z,99031.88
2023-03-26T18:56:26.140Z,99044.13
2023-03-26T18:58:52.923Z,99024.44
2023-03-26T19:01:25.943Z,99036.72
2023-03-26T19:03:53.866Z,99042.50
2023-03-26T19:06:21.068Z,99042.06
2023-03-26T19:08:48.198Z,99048.13
2023-03-26T19:11:17.020Z,99047.50
2023-03-26T19:13:44.058Z,99031.38
2023-03-26T19:16:21.298Z,99050.34
2023-03-26T19:18:48.575Z,99044.75
2023-03-26T19:21:16.143Z,99021.38
2023-03-26T19:23:42.936Z,99044.44
2023-03-26T19:26:10.535Z,99049.09
2023-03-26T19:28:50.934Z,99052.94
2023-03-26T19:31:27.246Z,99053.69
2023-03-26T19:33:58.054Z,99043.91
2023-03-26T19:36:29.727Z,99047.22
2023-03-26T19:38:59.106Z,99056.81
2023-03-26T19:41:34.581Z,99037.38
2023-03-26T19:44:03.822Z,99057.59
2023-03-26T19:46:33.682Z,99076.59
2023-03-26T19:49:05.718Z,99011.75
2023-03-26T19:51:34.620Z,98986.34
2023-03-26T19:54:04.535Z,99015.28
2023-03-26T19:56:39.496Z,98964.72
2023-03-26T19:59:11.500Z,99065.63
2023-03-26T20:01:38.331Z,98937.13
2023-03-26T20:04:06.665Z,99028.63
2023-03-26T20:09:25.649Z,99004.84
2023-03-26T20:11:56.768Z,99001.84
2023-03-26T20:14:30.919Z,99033.34
2023-03-26T20:17:04.885Z,99037.06
2023-03-26T20:19:41.962Z,98968.38
2023-03-26T20:22:22.535Z,98914.81
2023-03-26T20:24:51.413Z,98920.41
2023-03-26T20:27:26.248Z,98925.28
2023-03-26T20:33:12.416Z,98937.22
2023-03-26T20:35:35.896Z,98919.38
2023-03-26T20:38:17.041Z,98949.84
2023-03-26T20:40:54.883Z,98979.72
2023-03-26T20:43:29.331Z,99031.50
2023-03-26T20:45:59.392Z,98993.81
2023-03-26T20:48:56.451Z,98996.81
2023-03-26T20:51:31.616Z,99000.69
2023-03-26T20:54:37.960Z,99037.13
2023-03-26T20:57:17.550Z,99067.50
2023-03-26T20:59:47.967Z,99024.53
2023-03-26T21:02:14.684Z,98959.94
2023-03-26T21:04:41.650Z,98985.75
2023-03-26T21:07:17.694Z,99046.25
2023-03-26T21:09:47.411Z,99012.72
2023-03-26T21:12:23.550Z,99031.09
2023-03-26T21:14:51.168Z,99046.44
2023-03-26T21:17:23.237Z,99031.44
2023-03-26T21:19:58.873Z,99013.34
2023-03-26T21:22:56.456Z,99047.25
2023-03-26T21:26:22.624Z,99045.72
2023-03-26T21:28:49.953Z,99036.59
2023-03-26T21:31:21.076Z,99061.44
2023-03-26T21:33:49.513Z,99062.34
2023-03-26T21:36:18.473Z,99059.38
2023-03-26T21:38:46.054Z,99029.38
2023-03-26T21:41:24.854Z,99065.97
2023-03-26T21:43:51.876Z,99065.19
2023-03-26T21:46:19.075Z,99026.13
2023-03-26T21:48:45.975Z,99059.25
2023-03-26T21:51:14.858Z,99069.72
2023-03-26T21:53:42.594Z,99067.13
2023-03-26T21:56:47.666Z,99075.19
2023-03-26T21:59:51.535Z,99065.00
2023-03-26T22:02:30.706Z,99067.16
2023-03-26T22:05:19.206Z,99068.28
2023-03-26T22:08:01.948Z,99084.59
2023-03-26T22:10:29.484Z,99091.13
2023-03-26T22:12:56.138Z,99072.31
2023-03-26T22:15:23.983Z,99093.06
2023-03-26T22:17:54.191Z,99085.69
2023-03-26T22:20:24.463Z,99103.50
2023-03-26T22:22:53.265Z,99100.94
2023-03-26T22:25:21.219Z,99096.78
2023-03-26T22:27:48.906Z,99096.88
2023-03-26T22:30:16.466Z,99108.00
2023-03-26T22:32:45.968Z,99109.66
2023-03-26T22:35:13.119Z,99114.00
2023-03-26T22:37:40.548Z,99102.69
2023-03-26T22:40:08.850Z,99086.53
2023-03-26T22:42:36.188Z,99103.91
2023-03-26T22:45:04.267Z,99091.16
2023-03-26T22:47:33.814Z,99104.84
2023-03-26T22:50:00.854Z,99092.09
2023-03-26T22:52:28.193Z,99087.13
2023-03-26T22:54:54.884Z,99108.75
2023-03-26T22:57:24.445Z,99097.72
2023-03-26T22:59:52.068Z,99102.72
2023-03-26T23:02:19.175Z,99101.88
2023-03-26T23:04:46.481Z,99096.47
2023-03-26T23:07:13.321Z,99104.00
2023-03-26T23:09:39.985Z,99110.88
2023-03-26T23:12:06.784Z,99081.06
2023-03-26T23:14:33.432Z,99084.19
2023-03-26T23:17:01.535Z,99107.28
2023-03-26T23:19:30.202Z,99096.25
2023-03-26T23:21:57.594Z,99123.19
2023-03-26T23:24:26.633Z,99117.09
2023-03-26T23:26:53.468Z,99095.16
2023-03-26T23:29:20.369Z,99109.66
2023-03-26T23:31:47.433Z,99103.97
2023-03-26T23:34:15.381Z,99107.50
2023-03-26T23:36:42.450Z,99098.16
2023-03-26T23:39:09.341Z,99121.34
2023-03-26T23:41:36.906Z,99125.78
2023-03-26T23:44:04.228Z,99133.53
2023-03-26T23:46:33.572Z,99143.19
2023-03-26T23:49:02.458Z,99133.94
2023-03-26T23:51:30.402Z,99136.72
2023-03-26T23:53:57.281Z,99146.88
2023-03-26T23:56:24.158Z,99155.47
2023-03-26T23:58:50.925Z,99156.50
